Time;durP1;ratioP1;P1;durP2;ratioP2;P2;SDS_P1;SDS_P2;PMS_P1;PMS_P2;Temp;Humidity;BMP_temperature;BMP_pressure;BME280_temperature;BME280_humidity;BME280_pressure;Samples;Min_cycle;Max_cycle;Signal;HPM_P1;HPM_P2
2021/11/06 00:00:13;;;;;;;2.65;1.00;;;8.10;99.90;;;;;;5042827;28;20030;-76
2021/11/06 00:02:39;;;;;;;6.13;0.85;;;8.10;99.90;;;;;;5044594;28;20033;-77
2021/11/06 00:05:05;;;;;;;9.25;1.27;;;8.10;99.90;;;;;;5039028;28;20023;-78
2021/11/06 00:07:30;;;;;;;2.83;1.02;;;8.10;99.90;;;;;;5044314;28;20056;-78
2021/11/06 00:09:56;;;;;;;1.75;0.80;;;8.10;99.90;;;;;;5044333;28;20022;-75
2021/11/06 00:12:22;;;;;;;9.35;0.90;;;8.10;99.90;;;;;;5044083;28;20462;-79
2021/11/06 00:14:47;;;;;;;0.85;0.70;;;8.10;99.90;;;;;;5042918;28;20026;-74
2021/11/06 00:17:13;;;;;;;4.20;0.63;;;8.10;99.90;;;;;;5034604;28;20025;-81
2021/11/06 00:19:39;;;;;;;2.08;0.70;;;8.10;99.90;;;;;;5044182;28;20029;-79
2021/11/06 00:22:05;;;;;;;8.82;1.05;;;8.10;99.90;;;;;;5044314;28;20037;-80
2021/11/06 00:24:31;;;;;;;4.38;0.77;;;8.10;99.90;;;;;;5044088;28;20604;-78
2021/11/06 00:26:56;;;;;;;1.73;0.82;;;8.10;99.90;;;;;;5043729;28;20089;-79
2021/11/06 00:29:22;;;;;;;0.43;0.43;;;8.10;99.90;;;;;;5042343;28;20050;-77
2021/11/06 00:31:48;;;;;;;13.40;1.00;;;8.10;99.90;;;;;;5030631;28;20022;-76
2021/11/06 00:34:14;;;;;;;6.18;0.88;;;8.10;99.90;;;;;;5023541;28;20050;-79
2021/11/06 00:36:39;;;;;;;0.95;0.70;;;8.10;99.90;;;;;;5024784;28;20029;-78
2021/11/06 00:39:06;;;;;;;1.33;0.80;;;8.10;99.90;;;;;;5023474;28;20030;-77
2021/11/06 00:41:33;;;;;;;3.45;0.55;;;8.10;99.90;;;;;;5023397;28;20038;-78
2021/11/06 00:43:59;;;;;;;2.53;1.20;;;8.10;99.90;;;;;;5024682;28;20029;-78
2021/11/06 00:46:25;;;;;;;2.30;1.10;;;8.10;99.90;;;;;;5024616;28;20513;-80
2021/11/06 00:48:51;;;;;;;0.90;0.40;;;8.10;99.90;;;;;;5024818;28;20030;-82
2021/11/06 00:51:16;;;;;;;0.63;0.52;;;8.10;99.90;;;;;;5023384;28;20112;-80
2021/11/06 00:53:43;;;;;;;0.98;0.63;;;8.10;99.90;;;;;;5027671;28;20503;-81
2021/11/06 00:56:10;;;;;;;1.95;0.68;;;8.10;99.90;;;;;;5024271;28;20065;-78
2021/11/06 00:58:36;;;;;;;2.45;0.65;;;8.10;99.90;;;;;;5027267;28;20398;-82
2021/11/06 01:01:02;;;;;;;4.40;0.88;;;8.10;99.90;;;;;;5043441;28;20036;-83
2021/11/06 01:03:27;;;;;;;2.80;0.60;;;8.10;99.90;;;;;;5059170;28;20402;-81
2021/11/06 01:05:53;;;;;;;2.03;0.77;;;8.00;99.90;;;;;;5039275;28;20079;-84
2021/11/06 01:08:19;;;;;;;1.15;0.82;;;8.00;99.90;;;;;;5047586;28;20509;-80
2021/11/06 01:10:44;;;;;;;3.30;1.33;;;8.00;99.90;;;;;;5043716;28;20029;-79
2021/11/06 01:13:12;;;;;;;20.98;0.98;;;8.00;99.90;;;;;;5040703;28;20025;-80
2021/11/06 01:15:39;;;;;;;5.25;1.42;;;8.00;99.90;;;;;;5042361;28;20033;-81
2021/11/06 01:18:17;;;;;;;3.97;1.08;;;8.00;99.90;;;;;;5041031;28;20029;-85
2021/11/06 01:20:43;;;;;;;3.00;1.00;;;8.00;99.90;;;;;;5035099;28;20029;-83
2021/11/06 01:23:09;;;;;;;2.13;0.80;;;7.90;99.90;;;;;;5045639;28;20097;-81
2021/11/06 01:25:36;;;;;;;2.22;1.00;;;8.00;99.90;;;;;;5044322;28;20075;-83
2021/11/06 01:28:02;;;;;;;3.92;1.33;;;7.90;99.90;;;;;;5040665;28;20096;-84
2021/11/06 01:30:34;;;;;;;5.93;0.73;;;7.90;99.90;;;;;;5044193;28;20713;-80
2021/11/06 01:32:59;;;;;;;3.88;1.38;;;7.90;99.90;;;;;;5043104;28;20030;-80
2021/11/06 01:35:25;;;;;;;3.17;1.05;;;7.90;99.90;;;;;;5035299;28;20030;-82
2021/11/06 01:37:50;;;;;;;0.95;0.75;;;7.90;99.90;;;;;;5044689;28;20056;-84
2021/11/06 01:40:19;;;;;;;1.35;0.90;;;7.90;99.90;;;;;;5044902;28;20026;-80
2021/11/06 01:42:45;;;;;;;2.85;0.85;;;7.90;99.90;;;;;;5039209;28;20041;-84
2021/11/06 01:45:14;;;;;;;1.33;0.85;;;7.80;99.90;;;;;;5044844;28;20093;-85
2021/11/06 01:47:40;;;;;;;2.13;1.00;;;7.80;99.90;;;;;;5044669;28;20084;-81
2021/11/06 01:50:06;;;;;;;1.75;1.15;;;7.80;99.90;;;;;;5045742;28;20022;-81
2021/11/06 01:52:32;;;;;;;3.95;0.65;;;7.80;99.90;;;;;;5044536;28;20045;-79
2021/11/06 01:54:58;;;;;;;7.82;1.08;;;7.80;99.90;;;;;;5044223;28;20019;-78
2021/11/06 01:57:24;;;;;;;2.15;1.10;;;7.80;99.90;;;;;;5044223;28;20449;-79
2021/11/06 01:59:51;;;;;;;7.25;1.75;;;7.80;99.90;;;;;;5036165;28;20108;-83
2021/11/06 02:02:17;;;;;;;1.70;1.25;;;7.80;99.90;;;;;;5044245;28;20040;-83
2021/11/06 02:04:45;;;;;;;4.30;1.02;;;7.80;99.90;;;;;;5043317;28;20116;-79
2021/11/06 02:07:10;;;;;;;7.05;2.05;;;7.80;99.90;;;;;;5046945;28;20029;-76
2021/11/06 02:09:36;;;;;;;3.13;1.10;;;7.80;99.90;;;;;;5047040;28;20028;-83
2021/11/06 02:12:02;;;;;;;9.10;1.42;;;7.80;99.90;;;;;;5047112;28;20045;-80
2021/11/06 02:14:28;;;;;;;0.77;0.70;;;7.80;99.90;;;;;;5062222;28;20029;-82
2021/11/06 02:17:01;;;;;;;1.48;0.70;;;7.80;99.90;;;;;;5061738;28;20028;-81
2021/11/06 02:19:29;;;;;;;2.70;0.93;;;7.90;99.90;;;;;;5045590;28;20025;-81
2021/11/06 02:21:56;;;;;;;1.70;0.75;;;7.90;99.90;;;;;;5046306;28;20304;-78
2021/11/06 02:24:23;;;;;;;1.80;1.20;;;7.90;99.90;;;;;;5045099;28;20025;-78
2021/11/06 02:26:48;;;;;;;3.08;1.42;;;7.90;99.90;;;;;;5046530;28;20021;-80
2021/11/06 02:29:16;;;;;;;2.28;1.20;;;7.90;99.90;;;;;;5046274;28;20057;-79
2021/11/06 02:31:42;;;;;;;8.90;1.45;;;7.90;99.90;;;;;;5062032;28;20071;-83
2021/11/06 02:34:08;;;;;;;4.40;1.30;;;8.00;99.90;;;;;;5046857;28;20025;-80
2021/11/06 02:36:33;;;;;;;5.18;1.50;;;8.00;99.90;;;;;;5061987;28;20033;-82
2021/11/06 02:38:59;;;;;;;2.22;1.15;;;8.00;99.90;;;;;;5061718;28;20029;-79
2021/11/06 02:41:25;;;;;;;1.83;0.90;;;8.00;99.90;;;;;;5045090;28;20033;-78
2021/11/06 02:43:52;;;;;;;1.60;0.93;;;8.10;99.90;;;;;;5045041;28;20033;-82
2021/11/06 02:46:17;;;;;;;2.80;1.33;;;8.10;99.90;;;;;;5046401;28;20095;-83
2021/11/06 02:48:43;;;;;;;6.70;1.33;;;8.10;99.90;;;;;;5046083;28;20363;-85
2021/11/06 02:51:09;;;;;;;3.20;1.58;;;8.10;99.90;;;;;;5060704;28;20038;-80
2021/11/06 02:53:43;;;;;;;11.20;1.63;;;8.10;99.90;;;;;;5061120;28;20033;-83
2021/11/06 02:56:09;;;;;;;3.85;1.48;;;8.10;99.90;;;;;;5044831;28;20093;-83
2021/11/06 02:58:35;;;;;;;5.07;1.65;;;8.10;99.90;;;;;;5061243;28;20029;-83
2021/11/06 03:01:02;;;;;;;7.80;2.30;;;8.10;99.90;;;;;;5024586;28;20034;-85
2021/11/06 03:03:28;;;;;;;3.95;1.38;;;8.20;99.90;;;;;;5024909;28;20057;-83
2021/11/06 03:05:54;;;;;;;1.85;1.15;;;8.20;99.90;;;;;;5026004;28;20030;-82
2021/11/06 03:08:19;;;;;;;8.75;1.27;;;8.20;99.90;;;;;;5041344;28;20030;-77
2021/11/06 03:10:45;;;;;;;1.60;0.98;;;8.10;99.90;;;;;;5029723;28;20037;-82
2021/11/06 03:13:12;;;;;;;5.28;2.05;;;8.20;99.90;;;;;;5044581;28;20025;-85
2021/11/06 03:15:37;;;;;;;2.63;1.23;;;8.20;99.90;;;;;;5045967;28;20021;-85
2021/11/06 03:18:03;;;;;;;7.35;1.50;;;8.20;99.90;;;;;;5044666;28;20084;-83
2021/11/06 03:20:30;;;;;;;1.77;1.02;;;8.20;99.90;;;;;;5044526;28;20809;-86
2021/11/06 03:22:59;;;;;;;9.15;2.13;;;8.20;99.90;;;;;;5036187;28;20050;-84
2021/11/06 03:25:28;;;;;;;1.92;1.27;;;8.20;99.90;;;;;;5024106;28;20032;-84
2021/11/06 03:27:56;;;;;;;1.15;0.95;;;8.20;99.90;;;;;;5023572;28;20057;-84
2021/11/06 03:30:22;;;;;;;5.10;1.70;;;8.30;99.90;;;;;;5025909;28;20025;-86
2021/11/06 03:32:47;;;;;;;2.83;1.35;;;8.20;99.90;;;;;;5024340;28;20068;-86
2021/11/06 03:35:14;;;;;;;3.92;1.88;;;8.30;99.90;;;;;;5025596;28;20482;-84
2021/11/06 03:37:41;;;;;;;3.08;1.45;;;8.30;99.90;;;;;;5024786;28;20414;-84
2021/11/06 03:40:07;;;;;;;7.75;2.08;;;8.30;99.90;;;;;;5024920;28;20033;-84
2021/11/06 03:42:33;;;;;;;5.28;1.23;;;8.30;99.90;;;;;;5024683;28;20452;-83
2021/11/06 03:44:59;;;;;;;2.88;1.38;;;8.30;99.90;;;;;;5024491;28;20030;-80
2021/11/06 03:47:34;;;;;;;2.70;1.08;;;8.40;99.90;;;;;;5043068;28;20083;-81
2021/11/06 03:50:00;;;;;;;11.70;2.05;;;8.30;99.90;;;;;;5045084;28;20167;-81
2021/11/06 03:52:25;;;;;;;4.57;1.65;;;8.30;99.90;;;;;;5043747;28;20649;-79
2021/11/06 03:54:51;;;;;;;2.72;1.20;;;8.30;99.90;;;;;;5043598;28;20022;-82
2021/11/06 03:57:17;;;;;;;3.55;1.80;;;8.30;99.90;;;;;;5044902;28;20022;-82
2021/11/06 03:59:43;;;;;;;5.50;1.27;;;8.30;99.90;;;;;;5043641;28;20037;-82
2021/11/06 04:02:09;;;;;;;4.70;1.70;;;8.40;99.90;;;;;;5044928;28;20401;-80
2021/11/06 04:04:35;;;;;;;3.85;1.40;;;8.30;99.90;;;;;;5043593;28;20179;-80
2021/11/06 04:07:00;;;;;;;3.03;1.45;;;8.40;99.90;;;;;;5044999;28;20033;-85
2021/11/06 04:09:26;;;;;;;4.35;1.92;;;8.40;99.90;;;;;;5043704;28;20028;-85
2021/11/06 04:11:51;;;;;;;2.60;1.38;;;8.40;99.90;;;;;;5043452;28;20075;-84
2021/11/06 04:14:17;;;;;;;5.75;2.05;;;8.40;99.90;;;;;;5043297;28;20022;-86
2021/11/06 04:16:43;;;;;;;15.75;2.22;;;8.40;99.90;;;;;;5044851;28;20029;-86
2021/11/06 04:19:10;;;;;;;3.10;1.50;;;8.40;99.90;;;;;;5043587;28;20041;-86
2021/11/06 04:21:36;;;;;;;2.75;1.75;;;8.40;99.90;;;;;;5029198;28;20105;-86
2021/11/06 04:24:02;;;;;;;5.05;1.85;;;8.40;99.90;;;;;;5023627;28;20098;-84
2021/11/06 04:26:28;;;;;;;14.93;2.35;;;8.40;99.90;;;;;;5023645;28;20034;-77
2021/11/06 04:28:53;;;;;;;8.82;2.15;;;8.40;99.90;;;;;;5024438;28;20046;-79
2021/11/06 04:31:20;;;;;;;6.45;2.00;;;8.50;99.90;;;;;;5024778;28;20475;-79
2021/11/06 04:33:46;;;;;;;3.80;1.75;;;8.40;99.90;;;;;;5024815;28;20041;-81
2021/11/06 04:36:12;;;;;;;3.67;1.85;;;8.40;99.90;;;;;;5023564;28;20026;-82
2021/11/06 04:38:37;;;;;;;4.90;1.98;;;8.40;99.90;;;;;;5023487;28;20026;-80
2021/11/06 04:41:03;;;;;;;3.65;1.92;;;8.40;99.90;;;;;;5026477;28;20041;-82
2021/11/06 04:43:29;;;;;;;4.07;2.03;;;8.40;99.90;;;;;;5027220;28;20034;-83
2021/11/06 04:45:54;;;;;;;6.25;2.10;;;8.40;99.90;;;;;;5027250;28;20045;-79
2021/11/06 04:48:20;;;;;;;7.05;2.10;;;8.40;99.90;;;;;;5028439;28;20036;-81
2021/11/06 04:50:46;;;;;;;4.22;2.10;;;8.40;99.90;;;;;;5027212;28;20368;-82
2021/11/06 04:53:12;;;;;;;5.05;2.30;;;8.40;99.90;;;;;;5028632;28;20457;-84
2021/11/06 04:55:37;;;;;;;5.82;1.80;;;8.30;99.90;;;;;;5027472;28;20375;-80
2021/11/06 04:58:03;;;;;;;2.90;2.00;;;8.30;99.90;;;;;;5027288;28;20623;-80
2021/11/06 05:00:30;;;;;;;10.73;2.45;;;8.30;99.90;;;;;;5027210;28;20030;-83
2021/11/06 05:02:55;;;;;;;4.82;2.13;;;8.40;99.90;;;;;;5028225;28;20132;-81
2021/11/06 05:05:23;;;;;;;12.10;2.42;;;8.30;99.90;;;;;;5026946;28;20092;-81
2021/11/06 05:07:49;;;;;;;6.07;2.22;;;8.30;99.90;;;;;;5026742;28;20033;-84
2021/11/06 05:10:15;;;;;;;11.95;2.85;;;8.40;99.90;;;;;;5027067;28;20034;-81
2021/11/06 05:12:40;;;;;;;8.52;3.00;;;8.40;99.90;;;;;;5026808;28;20033;-81
2021/11/06 05:15:07;;;;;;;6.60;3.03;;;8.40;99.90;;;;;;5026846;28;20048;-81
2021/11/06 05:17:33;;;;;;;8.18;2.80;;;8.40;99.90;;;;;;5026946;28;20037;-84
2021/11/06 05:19:59;;;;;;;5.53;2.45;;;8.40;99.90;;;;;;5026676;28;20502;-83
2021/11/06 05:22:26;;;;;;;4.85;2.88;;;8.50;99.90;;;;;;5026591;28;20050;-83
2021/11/06 05:24:52;;;;;;;6.05;3.10;;;8.50;99.90;;;;;;5026707;28;20084;-85
2021/11/06 05:27:18;;;;;;;6.18;2.60;;;8.50;99.90;;;;;;5026592;28;20061;-83
2021/11/06 05:29:43;;;;;;;15.35;3.88;;;8.50;99.90;;;;;;5026346;28;20054;-81
2021/11/06 05:32:09;;;;;;;10.23;2.85;;;8.60;99.90;;;;;;5027941;28;20030;-80
2021/11/06 05:34:35;;;;;;;11.60;3.20;;;8.60;99.90;;;;;;5026861;28;20053;-82
2021/11/06 05:37:00;;;;;;;8.77;3.67;;;8.60;99.90;;;;;;5026742;28;20034;-81
2021/11/06 05:39:26;;;;;;;6.43;3.50;;;8.60;99.90;;;;;;5026296;28;20394;-81
2021/11/06 05:41:52;;;;;;;5.53;3.15;;;8.60;99.90;;;;;;5026446;28;20041;-77
2021/11/06 05:44:17;;;;;;;9.18;3.90;;;8.60;99.90;;;;;;5026396;28;20097;-84
2021/11/06 05:46:43;;;;;;;7.00;3.17;;;8.60;99.90;;;;;;5026627;28;20030;-83
2021/11/06 05:49:09;;;;;;;6.50;3.53;;;8.60;99.90;;;;;;5028011;28;20437;-81
2021/11/06 05:51:35;;;;;;;9.55;4.18;;;8.60;99.90;;;;;;5027834;28;20036;-81
2021/11/06 05:54:01;;;;;;;9.68;4.30;;;8.60;99.90;;;;;;5027931;28;20034;-82
2021/11/06 05:56:26;;;;;;;9.82;4.45;;;8.60;99.90;;;;;;5026486;28;20474;-80
2021/11/06 05:58:52;;;;;;;9.75;3.83;;;8.60;99.90;;;;;;5026402;28;20056;-80
2021/11/06 06:01:17;;;;;;;15.20;5.05;;;8.60;99.90;;;;;;5027406;28;20085;-83
2021/11/06 06:03:44;;;;;;;12.13;4.70;;;8.60;99.90;;;;;;5026090;28;20022;-81
2021/11/06 06:06:10;;;;;;;21.38;4.05;;;8.60;99.90;;;;;;5026009;28;20032;-82
2021/11/06 06:08:36;;;;;;;11.55;4.53;;;8.60;99.90;;;;;;5027193;28;20077;-80
2021/11/06 06:11:02;;;;;;;9.65;4.68;;;8.60;99.90;;;;;;5027446;28;20394;-84
2021/11/06 06:13:29;;;;;;;10.18;4.72;;;8.60;99.90;;;;;;5027205;28;20028;-82
2021/11/06 06:15:55;;;;;;;13.23;4.70;;;8.60;99.90;;;;;;5025914;28;20157;-81
2021/11/06 06:18:20;;;;;;;9.52;4.93;;;8.60;99.90;;;;;;5027107;28;20390;-82
2021/11/06 06:20:46;;;;;;;12.50;4.90;;;8.60;99.90;;;;;;5025707;28;20493;-81
2021/11/06 06:23:12;;;;;;;11.70;5.75;;;8.60;99.90;;;;;;5025490;28;20125;-80
2021/11/06 06:25:38;;;;;;;15.27;6.13;;;8.60;99.90;;;;;;5025285;28;20022;-84
2021/11/06 06:28:05;;;;;;;8.93;4.55;;;8.60;99.90;;;;;;5025427;28;20077;-81
2021/11/06 06:30:31;;;;;;;11.07;5.60;;;8.60;99.90;;;;;;5025620;28;20026;-80
2021/11/06 06:32:56;;;;;;;12.38;6.03;;;8.60;99.90;;;;;;5026714;28;20601;-83
2021/11/06 06:35:22;;;;;;;11.23;5.43;;;8.60;99.90;;;;;;5025175;28;20030;-79
2021/11/06 06:37:48;;;;;;;11.88;5.53;;;8.60;99.90;;;;;;5025288;28;20026;-78
2021/11/06 06:40:14;;;;;;;16.23;6.18;;;8.60;99.90;;;;;;5026564;28;20033;-77
2021/11/06 06:42:40;;;;;;;12.25;5.47;;;8.60;99.90;;;;;;5025127;28;20061;-79
2021/11/06 06:45:07;;;;;;;12.27;6.57;;;8.60;99.90;;;;;;5025311;28;20060;-79
2021/11/06 06:47:33;;;;;;;21.90;6.22;;;8.60;99.90;;;;;;5025240;28;20030;-79
2021/11/06 06:49:59;;;;;;;18.08;6.97;;;8.60;99.90;;;;;;5024991;28;20021;-78
2021/11/06 06:52:25;;;;;;;11.50;6.15;;;8.60;99.90;;;;;;5026065;28;20037;-76
2021/11/06 06:54:50;;;;;;;14.35;6.68;;;8.70;99.90;;;;;;5026221;28;20026;-79
2021/11/06 06:57:16;;;;;;;12.25;6.22;;;8.70;99.90;;;;;;5024878;28;20022;-80
2021/11/06 06:59:42;;;;;;;15.73;7.18;;;8.60;99.90;;;;;;5026280;28;20082;-82
2021/11/06 07:02:08;;;;;;;20.23;6.88;;;8.70;99.90;;;;;;5024162;28;20080;-79
2021/11/06 07:04:35;;;;;;;16.67;7.20;;;8.70;99.90;;;;;;5026147;28;20576;-76
2021/11/06 07:07:01;;;;;;;13.80;6.53;;;8.70;99.90;;;;;;5025896;28;20033;-81
2021/11/06 07:09:27;;;;;;;14.25;7.32;;;8.70;99.90;;;;;;5024535;28;20406;-80
2021/11/06 07:11:52;;;;;;;14.63;6.85;;;8.70;99.90;;;;;;5026782;28;20026;-77
2021/11/06 07:14:20;;;;;;;22.45;7.70;;;8.70;99.90;;;;;;5024334;28;20398;-77
2021/11/06 07:16:49;;;;;;;14.27;7.82;;;8.70;99.90;;;;;;5032726;28;20021;-78
2021/11/06 07:19:16;;;;;;;16.00;7.82;;;8.70;99.90;;;;;;5029485;28;20034;-78
2021/11/06 07:21:41;;;;;;;22.08;8.38;;;8.70;99.90;;;;;;5024445;28;20033;-79
2021/11/06 07:24:08;;;;;;;18.73;8.30;;;8.70;99.90;;;;;;5025339;28;20037;-81
2021/11/06 07:26:34;;;;;;;25.27;8.02;;;8.70;99.90;;;;;;5031923;28;20036;-77
2021/11/06 07:29:01;;;;;;;15.68;7.72;;;8.70;99.90;;;;;;5035176;28;20149;-81
2021/11/06 07:31:27;;;;;;;16.52;7.80;;;8.70;99.90;;;;;;5043484;28;20029;-74
2021/11/06 07:33:54;;;;;;;19.67;7.95;;;8.70;99.90;;;;;;5035365;28;20022;-78
2021/11/06 07:36:24;;;;;;;17.90;7.57;;;8.70;99.90;;;;;;5042270;28;20107;-77
2021/11/06 07:38:50;;;;;;;18.35;7.47;;;8.70;99.90;;;;;;5044551;28;20112;-80
2021/11/06 07:41:23;;;;;;;19.33;7.88;;;8.70;99.90;;;;;;5040462;28;20458;-79
2021/11/06 07:43:50;;;;;;;19.70;9.50;;;8.70;99.90;;;;;;5027572;28;20030;-79
2021/11/06 07:46:16;;;;;;;17.10;8.20;;;8.70;99.90;;;;;;5025015;28;20022;-81
2021/11/06 07:48:43;;;;;;;14.32;7.15;;;8.80;99.90;;;;;;5032341;28;20481;-78
2021/11/06 07:51:12;;;;;;;18.90;7.05;;;8.70;99.90;;;;;;5033298;28;20030;-79
2021/11/06 07:53:37;;;;;;;14.13;7.13;;;8.80;99.90;;;;;;5045368;28;20026;-77
2021/11/06 07:56:03;;;;;;;15.90;8.10;;;8.80;99.90;;;;;;5025705;28;20036;-81
2021/11/06 07:58:29;;;;;;;13.60;6.47;;;8.80;99.90;;;;;;5028835;28;20017;-79
2021/11/06 08:00:57;;;;;;;17.27;8.75;;;8.80;99.90;;;;;;5043199;28;20052;-80
2021/11/06 08:03:34;;;;;;;19.67;8.60;;;8.80;99.90;;;;;;5040473;28;20088;-80
2021/11/06 08:06:00;;;;;;;17.30;7.70;;;8.80;99.90;;;;;;5031936;28;20029;-79
2021/11/06 08:08:25;;;;;;;20.02;8.23;;;8.80;99.90;;;;;;5025725;28;20044;-79
2021/11/06 08:10:51;;;;;;;15.65;7.47;;;8.90;99.90;;;;;;5052726;28;20022;-75
2021/11/06 08:13:16;;;;;;;22.90;8.65;;;8.90;99.90;;;;;;5039772;28;20025;-81
2021/11/06 08:15:43;;;;;;;22.05;8.32;;;8.90;99.90;;;;;;5058674;28;20071;-77
2021/11/06 08:18:08;;;;;;;17.63;8.85;;;8.90;99.90;;;;;;5024669;28;20585;-76
2021/11/06 08:20:35;;;;;;;19.48;10.15;;;8.90;99.90;;;;;;5032040;28;20033;-74
2021/11/06 08:23:01;;;;;;;17.52;9.48;;;9.00;99.90;;;;;;5043202;28;20041;-74
2021/11/06 08:25:27;;;;;;;16.90;9.45;;;9.00;99.90;;;;;;5042456;28;20473;-75
2021/11/06 08:27:54;;;;;;;21.50;9.73;;;9.00;99.90;;;;;;5048124;28;20045;-76
2021/11/06 08:30:22;;;;;;;24.15;9.48;;;9.00;99.90;;;;;;5053245;28;20029;-77
2021/11/06 08:32:50;;;;;;;24.27;9.93;;;9.00;99.90;;;;;;5050434;28;20036;-77
2021/11/06 08:35:16;;;;;;;26.60;10.45;;;9.00;99.90;;;;;;5042671;28;20469;-76
2021/11/06 08:37:43;;;;;;;21.92;10.50;;;9.00;99.90;;;;;;5037330;28;20090;-77
2021/11/06 08:40:09;;;;;;;19.48;9.18;;;9.00;99.90;;;;;;5031413;28;20029;-74
2021/11/06 08:42:37;;;;;;;22.90;9.57;;;9.10;99.90;;;;;;5040352;28;20049;-76
2021/11/06 08:45:08;;;;;;;18.95;9.10;;;9.10;99.90;;;;;;5044461;28;20462;-77
2021/11/06 08:47:42;;;;;;;25.10;11.05;;;9.00;99.90;;;;;;5044551;28;20049;-79
2021/11/06 08:50:14;;;;;;;23.92;10.27;;;9.00;99.90;;;;;;5043344;28;20139;-77
2021/11/06 08:52:41;;;;;;;20.92;9.75;;;9.00;99.90;;;;;;5043438;28;20030;-80
2021/11/06 08:55:08;;;;;;;19.33;9.38;;;9.10;99.90;;;;;;5044646;28;20041;-79
2021/11/06 08:57:36;;;;;;;24.92;10.77;;;9.10;99.90;;;;;;5044462;28;20026;-79
2021/11/06 09:00:08;;;;;;;21.90;10.65;;;9.10;99.90;;;;;;5043080;28;20046;-80
2021/11/06 09:02:35;;;;;;;27.58;11.02;;;9.10;99.90;;;;;;5041639;28;20045;-73
2021/11/06 09:05:02;;;;;;;25.90;9.95;;;9.10;99.90;;;;;;5043126;28;20052;-77
2021/11/06 09:07:30;;;;;;;27.52;12.05;;;9.10;99.90;;;;;;5043963;28;20029;-75
2021/11/06 09:09:55;;;;;;;18.70;9.88;;;9.10;99.90;;;;;;5044141;28;20029;-78
2021/11/06 09:12:21;;;;;;;22.80;10.27;;;9.10;99.90;;;;;;5042767;28;20030;-75
2021/11/06 09:14:47;;;;;;;25.65;10.65;;;9.20;99.90;;;;;;5035479;28;20033;-78
2021/11/06 09:17:13;;;;;;;27.80;11.40;;;9.20;99.90;;;;;;5039397;28;20048;-76
2021/11/06 09:19:38;;;;;;;21.65;10.23;;;9.20;99.90;;;;;;5036476;28;20065;-76
2021/11/06 09:22:04;;;;;;;21.88;10.30;;;9.20;99.90;;;;;;5042957;28;20128;-75
2021/11/06 09:24:31;;;;;;;25.83;10.30;;;9.20;99.90;;;;;;5043266;28;20025;-74
2021/11/06 09:26:56;;;;;;;24.80;10.38;;;9.20;99.90;;;;;;5036913;28;20844;-77
2021/11/06 09:29:25;;;;;;;27.08;11.43;;;9.20;99.90;;;;;;5038361;28;20057;-75
2021/11/06 09:31:51;;;;;;;21.42;10.48;;;9.20;99.90;;;;;;5027403;28;20037;-74
2021/11/06 09:34:16;;;;;;;26.40;10.43;;;9.20;99.90;;;;;;5030376;28;20029;-73
2021/11/06 09:36:42;;;;;;;26.25;9.95;;;9.30;99.90;;;;;;5063358;28;20103;-74
2021/11/06 09:39:10;;;;;;;22.15;11.75;;;9.30;99.90;;;;;;5065829;28;20017;-77
2021/11/06 09:41:46;;;;;;;30.48;12.55;;;9.30;99.90;;;;;;5067013;28;20377;-77
2021/11/06 09:44:12;;;;;;;30.38;11.10;;;9.30;99.90;;;;;;5066848;28;20060;-77
2021/11/06 09:46:44;;;;;;;23.67;10.40;;;9.30;99.90;;;;;;5057860;28;20029;-76
2021/11/06 09:49:11;;;;;;;30.38;11.48;;;9.30;99.90;;;;;;5043715;28;20051;-76
2021/11/06 09:51:37;;;;;;;26.20;11.50;;;9.30;99.90;;;;;;5038539;28;20049;-76
2021/11/06 09:54:05;;;;;;;34.13;10.98;;;9.30;99.90;;;;;;5033758;28;20064;-79
2021/11/06 09:56:32;;;;;;;30.65;13.13;;;9.30;99.90;;;;;;5043107;28;20584;-77
2021/11/06 09:59:01;;;;;;;25.25;10.70;;;9.30;99.90;;;;;;5042328;28;20052;-75
2021/11/06 10:01:32;;;;;;;18.88;9.02;;;9.30;99.90;;;;;;5037847;28;20067;-72
2021/11/06 10:03:59;;;;;;;32.47;13.57;;;9.30;99.90;;;;;;5031457;28;20040;-76
2021/11/06 10:06:27;;;;;;;27.23;11.27;;;9.30;99.90;;;;;;5067094;28;20021;-75
2021/11/06 10:08:54;;;;;;;27.23;12.20;;;9.40;99.90;;;;;;5045897;28;20073;-76
2021/11/06 10:11:34;;;;;;;21.02;10.30;;;9.40;99.90;;;;;;5040031;28;20401;-75
2021/11/06 10:14:13;;;;;;;23.35;11.68;;;9.40;99.90;;;;;;5032114;28;20061;-76
2021/11/06 10:16:59;;;;;;;19.92;10.05;;;9.40;99.90;;;;;;5027494;28;20093;-77
2021/11/06 10:19:53;;;;;;;36.08;11.45;;;9.40;99.90;;;;;;5043756;28;20037;-75
2021/11/06 10:22:25;;;;;;;28.17;10.57;;;9.50;99.90;;;;;;5028886;28;20042;-76
2021/11/06 10:24:57;;;;;;;27.20;11.40;;;9.40;99.90;;;;;;5031263;28;20533;-74
2021/11/06 10:27:25;;;;;;;33.80;12.82;;;9.40;99.90;;;;;;5060538;28;20064;-74
2021/11/06 10:30:11;;;;;;;35.03;12.73;;;9.40;99.90;;;;;;5041886;28;20044;-75
2021/11/06 10:32:39;;;;;;;24.73;11.70;;;9.40;99.90;;;;;;5050363;28;20117;-75
2021/11/06 10:35:17;;;;;;;21.45;10.75;;;9.40;99.90;;;;;;5037974;28;20032;-73
2021/11/06 10:37:45;;;;;;;23.15;10.55;;;9.40;99.90;;;;;;5042626;28;20025;-75
2021/11/06 10:40:20;;;;;;;34.10;11.30;;;9.40;99.90;;;;;;5025761;28;20069;-75
2021/11/06 10:42:54;;;;;;;30.20;12.00;;;9.40;99.90;;;;;;5024704;28;20046;-74
2021/11/06 10:45:23;;;;;;;25.40;11.55;;;9.40;99.90;;;;;;5024851;28;20022;-75
2021/11/06 10:48:12;;;;;;;29.65;11.60;;;9.40;99.90;;;;;;5024209;28;20045;-75
2021/11/06 10:50:40;;;;;;;27.50;10.98;;;9.40;99.90;;;;;;5025729;28;20065;-76
2021/11/06 10:53:07;;;;;;;20.63;11.35;;;9.40;99.90;;;;;;5029904;28;20026;-74
2021/11/06 10:55:39;;;;;;;36.45;13.75;;;9.40;99.90;;;;;;5037188;28;20305;-74
2021/11/06 10:58:27;;;;;;;33.47;11.65;;;9.40;99.90;;;;;;5029602;28;20030;-74
2021/11/06 11:00:55;;;;;;;33.28;14.55;;;9.30;99.90;;;;;;5025715;28;20029;-74
2021/11/06 11:03:25;;;;;;;24.08;11.55;;;9.40;99.90;;;;;;5033140;28;20282;-76
2021/11/06 11:05:52;;;;;;;28.40;12.18;;;9.30;99.90;;;;;;5044317;28;20033;-74
2021/11/06 11:08:17;;;;;;;28.63;12.13;;;9.30;99.90;;;;;;5045465;28;20429;-76
2021/11/06 11:10:48;;;;;;;34.17;14.68;;;9.20;99.90;;;;;;5045411;28;20049;-76
2021/11/06 11:13:20;;;;;;;23.98;11.13;;;9.20;99.90;;;;;;5044170;28;20026;-75
2021/11/06 11:15:50;;;;;;;32.70;12.82;;;9.20;99.90;;;;;;5044372;28;20035;-76
2021/11/06 11:18:30;;;;;;;32.17;12.90;;;9.10;99.90;;;;;;5045601;28;20025;-75
2021/11/06 11:21:25;;;;;;;30.80;12.63;;;9.10;99.90;;;;;;5045023;28;20041;-74
2021/11/06 11:24:17;;;;;;;30.02;10.77;;;9.10;99.90;;;;;;5031566;28;20026;-76
2021/11/06 11:26:46;;;;;;;26.23;12.02;;;9.10;99.90;;;;;;5044298;28;20056;-75
2021/11/06 11:29:20;;;;;;;27.40;11.48;;;9.10;99.90;;;;;;5043979;28;20222;-75
2021/11/06 11:31:46;;;;;;;25.50;12.57;;;9.10;99.90;;;;;;5045431;28;20033;-77
2021/11/06 11:34:12;;;;;;;24.20;9.68;;;9.10;99.90;;;;;;5045695;28;20257;-75
2021/11/06 11:36:41;;;;;;;35.40;13.02;;;9.10;99.90;;;;;;5038298;28;20057;-76
2021/11/06 11:39:11;;;;;;;26.90;11.13;;;9.10;99.90;;;;;;5024252;28;20498;-74
2021/11/06 11:41:54;;;;;;;34.80;12.50;;;9.10;99.90;;;;;;5023976;28;20042;-76
2021/11/06 11:44:26;;;;;;;21.75;10.23;;;9.20;99.90;;;;;;5024134;28;20033;-77
2021/11/06 11:47:21;;;;;;;27.88;10.98;;;9.20;99.90;;;;;;5025338;28;20034;-74
2021/11/06 11:49:52;;;;;;;33.30;10.85;;;9.30;99.90;;;;;;5015562;28;20054;-75
2021/11/06 11:52:33;;;;;;;25.92;12.00;;;9.30;99.90;;;;;;5025344;28;20018;-76
2021/11/06 11:55:01;;;;;;;24.42;10.95;;;9.40;99.90;;;;;;5025334;28;20030;-74
2021/11/06 11:57:27;;;;;;;25.77;10.02;;;9.40;99.90;;;;;;5025124;28;20029;-73
2021/11/06 11:59:53;;;;;;;26.63;11.85;;;9.40;99.90;;;;;;5025196;28;20082;-74
2021/11/06 12:02:28;;;;;;;25.83;10.68;;;9.40;99.90;;;;;;5044590;28;20040;-75
2021/11/06 12:05:16;;;;;;;25.52;10.52;;;9.50;99.90;;;;;;5030970;28;20095;-75
2021/11/06 12:07:45;;;;;;;25.30;10.48;;;9.50;99.90;;;;;;5041370;28;20466;-77
2021/11/06 12:10:29;;;;;;;31.10;11.27;;;9.60;99.90;;;;;;5059860;28;20033;-74
2021/11/06 12:12:56;;;;;;;32.45;10.48;;;9.60;99.90;;;;;;5062210;28;20095;-75
2021/11/06 12:16:00;;;;;;;22.98;10.27;;;9.60;99.90;;;;;;5063693;28;20021;-74
2021/11/06 12:18:47;;;;;;;20.33;8.77;;;9.70;99.90;;;;;;5064196;28;20025;-74
2021/11/06 12:21:16;;;;;;;19.98;10.13;;;9.70;99.90;;;;;;5065128;28;20059;-74
2021/11/06 12:23:48;;;;;;;20.95;9.82;;;9.70;99.90;;;;;;5063879;28;20071;-74
2021/11/06 12:26:16;;;;;;;27.58;9.13;;;9.80;99.90;;;;;;5064669;28;20033;-73
2021/11/06 12:28:43;;;;;;;25.50;8.38;;;9.80;99.90;;;;;;5064742;28;20080;-75
2021/11/06 12:31:28;;;;;;;26.83;10.23;;;9.80;99.90;;;;;;5065214;28;20037;-72
2021/11/06 12:33:54;;;;;;;21.67;8.85;;;9.80;99.90;;;;;;5064440;28;20033;-73
2021/11/06 12:36:23;;;;;;;24.95;8.95;;;9.80;99.90;;;;;;5064506;28;20076;-74
2021/11/06 12:38:54;;;;;;;19.17;9.30;;;9.90;99.90;;;;;;5042020;28;20033;-75
2021/11/06 12:41:39;;;;;;;18.38;8.38;;;9.90;99.90;;;;;;5034887;28;20044;-72
2021/11/06 12:44:08;;;;;;;20.67;8.85;;;10.00;99.90;;;;;;5034259;28;20485;-71
2021/11/06 12:46:37;;;;;;;18.10;8.48;;;10.10;99.90;;;;;;5040954;28;20034;-72
2021/11/06 12:49:08;;;;;;;19.10;8.23;;;10.10;99.90;;;;;;5043079;28;20022;-75
2021/11/06 12:51:42;;;;;;;21.67;9.13;;;10.20;99.90;;;;;;5048146;28;20021;-75